• Join FlightAware (Why Join?)
  • Login
  • US Flag 
08:40AM EST


 

Airport Tracker/Info


-or-


 

Live Flight TrackerFlight Track Log ✈ N600TR ✈ 23-Aug-2013 ✈ KDTW - KPHL

Flight Track Log - Related Links

Times and Time Zones

All times are in EDT time to prevent confusion due to time zone crossing. See the N600TR flight status page for this flight to view local times or setup timezone preferences in your user account.

Time Position Orientation Groundspeed Altitude Reporting Facility
EDT Latitude Longitude Course Direction KTS MPH feet Rate Location/Type
06:07PM 42.2356 -83.3289 96° East 174 200 1,400  Level Cleveland Center
06:07PM 42.2717 -83.3050 26° Northeast 221 254 2,600 2,077 Climbing Cleveland Center
06:08PM 42.3228 -83.2594 33° Northeast 227 261 5,000 2,051 Climbing Cleveland Center
06:09PM 42.3269 -83.1725 86° East 292 336 6,600 1,914 Climbing Cleveland Center
06:10PM 42.2167 -82.6962 90° East  Level FlightAware Approximate
06:10PM 42.2958 -83.0619 111° Southeast 293 337 8,700  Level Cleveland Center
06:11PM 42.2167 -82.5318 90° East  Level FlightAware Approximate
06:11PM 42.2750 -82.9600 105° East 303 349 10,300  Level Cleveland Center
06:12PM 42.2117 -82.3678 96° East  Level FlightAware Approximate
06:12PM 42.2483 -82.8356 106° East 315 362 11,600  Level Cleveland Center
06:13PM 42.2303 -82.7003 100° East 340 391 13,600 1,850 Climbing Cleveland Center
06:14PM 42.2203 -82.5569 95° East 364 419 15,300 1,800 Climbing Cleveland Center
06:15PM 42.2164 -82.4111 92° East 382 440 17,200 1,550 Climbing Cleveland Center
06:16PM 42.2000 -82.2622 98° East 393 452 18,400 1,350 Climbing Cleveland Center
06:17PM 42.1853 -82.1244 98° East 407 468 19,900 1,350 Climbing Cleveland Center
06:18PM 42.1664 -81.9669 99° East 414 476 21,100 1,150 Climbing Cleveland Center
06:19PM 42.0867 -81.8339 129° Southeast 427 491 22,200 1,150 Climbing Cleveland Center
06:20PM 41.9942 -81.7064 134° Southeast 456 525 23,400 1,150 Climbing Cleveland Center
06:21PM 41.8972 -81.5847 137° Southeast 477 549 24,500 1,000 Climbing Cleveland Center
06:22PM 41.7814 -81.4603 141° Southeast 489 563 25,400 950 Climbing Cleveland Center
06:23PM 41.6761 -81.3364 139° Southeast 500 575 26,400 950 Climbing Cleveland Center
06:24PM 41.5683 -81.2131 139° Southeast 500 575 27,300 850 Climbing Cleveland Center
06:25PM 41.4628 -81.0847 138° Southeast 508 585 28,100 800 Climbing Cleveland Center
06:26PM 41.3569 -80.9567 138° Southeast 508 585 28,900 450 Climbing Cleveland Center
06:27PM 41.2489 -80.8233 137° Southeast 515 593 29,000 50 Climbing Cleveland Center
06:28PM 41.1531 -80.6989 136° Southeast 525 604 29,000  Level Cleveland Center
06:29PM 41.0572 -80.5556 132° Southeast 525 604 29,000  Level Cleveland Center
06:30PM 40.9656 -80.3989 128° Southeast 525 604 29,000  Level Cleveland Center
06:31PM 40.8714 -80.2453 129° Southeast 531 611 29,000  Level Cleveland Center
06:32PM 40.7853 -80.0894 126° Southeast 531 611 29,000  Level Cleveland Center
06:33PM 40.7072 -79.9067 119° Southeast 531 611 29,000  Level Cleveland Center
06:34PM 40.6456 -79.7294 115° Southeast 526 605 29,000  Level Cleveland Center
06:35PM 40.5919 -79.5494 111° Southeast 526 605 29,000  Level Cleveland Center
06:36PM 40.5381 -79.3672 111° Southeast 526 605 29,000  Level Cleveland Center
06:37PM 40.4781 -79.2156 117° Southeast 526 605 29,000  Level Cleveland Center
06:38PM 40.4153 -79.0422 115° Southeast 526 605 29,000 -250 Level Cleveland Center
06:39PM 40.3419 -78.8725 120° Southeast 526 605 28,500 -1,200 Descending Cleveland Center
06:40PM 40.3117 -78.6689 101° East 515 593 26,600 -1,550 Descending Cleveland Center
06:41PM 40.3147 -78.4864 89° East 509 586 25,400 -487 Descending Cleveland Center
06:44PM 40.3117 -78.0911 90° East 511 588 25,000 -122 Descending New York Center
06:45PM 40.3119 -77.9167 90° East 494 568 25,000 -450 Level New York Center
06:46PM 40.3081 -77.7392 92° East 483 556 24,100 -1,150 Descending New York Center
06:47PM 40.3061 -77.5594 91° East 483 556 22,700 -1,300 Descending New York Center
06:48PM 40.3075 -77.3881 89° East 483 556 21,500 -1,350 Descending New York Center
06:49PM 40.3103 -77.2222 89° East 439 505 20,000 -1,550 Descending New York Center
06:50PM 40.3078 -77.0778 91° East 403 464 18,400 -1,050 Descending New York Center
06:51PM 40.2711 -76.9408 109° East 393 452 17,900 -250 Descending New York Center
06:52PM 40.2408 -76.8022 106° East 398 458 17,900 -700 Level New York Center
06:53PM 40.2119 -76.6692 106° East 388 447 16,500 -1,700 Descending New York Center
06:54PM 40.1864 -76.5556 106° East 371 427 14,500 -2,150 Descending New York Center
06:55PM 40.1569 -76.4336 107° East 361 415 12,200 -1,700 Descending New York Center
06:56PM 40.1297 -76.3011 105° East 351 404 11,100 -900 Descending New York Center
06:57PM 40.1142 -76.1858 100° East 340 391 10,400 -1,050 Descending New York Center
06:58PM 40.0981 -76.0814 101° East 307 353 9,000 -1,100 Descending New York Center
06:59PM 40.0919 -75.9861 95° East 295 339 8,200 -492 Descending New York Center
07:00PM 40.0844 -75.8742 95° East 289 333 8,000 -91 Descending New York Center
07:01PM 40.0772 -75.7517 94° East 283 326 8,000 -231 Level New York Center
07:02PM 40.0728 -75.6589 94° East 277 319 7,500 -500 Descending New York Center
07:03PM 40.0689 -75.5503 93° East 277 319 7,000 -250 Descending New York Center
07:04PM 40.0642 -75.4603 94° East 272 313 7,000 -400 Level New York Center
07:05PM 40.0539 -75.3483 97° East 277 319 6,200 -556 Descending New York Center
07:06PM 40.0500 -75.2667 94° East 280 322 6,000 -118 Descending Philadelphia TRACON
07:06PM 40.0333 -75.1833 105° East 238 274 6,000 -316 Level Philadelphia TRACON
07:07PM 40.0333 -75.1000 90° East 242 278 5,400 -476 Descending Philadelphia TRACON
07:09PM 40.0167 -75.0167 105° East 233 268 5,000 -190 Descending Philadelphia TRACON
07:10PM 40.0167 -74.9167 90° East 230 265 5,000  Level Philadelphia TRACON
07:10PM 39.9667 -74.8833 153° Southeast 247 284 5,000 -700 Level Philadelphia TRACON
07:12PM 39.9333 -74.9333 229° Southwest 193 222 3,600 -1,190 Descending Philadelphia TRACON
07:13PM 39.9167 -75.0000 252° West 181 208 2,500 -600 Descending Philadelphia TRACON
07:14PM 39.9000 -75.0667 252° West 189 217 2,400 -368 Descending Philadelphia TRACON
07:14PM 39.9000 -75.1167 270° West 184 212 1,800 -826 Descending Philadelphia TRACON
07:15PM 39.8833 -75.1667 247° West 147 169 900 -982 Descending Philadelphia TRACON